Time;durP1;ratioP1;P1;durP2;ratioP2;P2;SDS_P1;SDS_P2;PMS_P1;PMS_P2;Temp;Humidity;BMP_temperature;BMP_pressure;BME280_temperature;BME280_humidity;BME280_pressure;Samples;Min_cycle;Max_cycle;Signal;HPM_P1;HPM_P2
2022/03/31 00:00:54;;;;;;;10.77;7.65;;;4.60;85.60;;;;;;5009350;28;20084;-47
2022/03/31 00:03:20;;;;;;;10.98;8.50;;;4.60;85.90;;;;;;5009830;28;20113;-50
2022/03/31 00:05:50;;;;;;;10.40;7.72;;;4.70;86.00;;;;;;5010108;28;20098;-49
2022/03/31 00:08:19;;;;;;;10.85;8.50;;;4.70;86.10;;;;;;5009204;28;20050;-50
2022/03/31 00:11:04;;;;;;;12.65;8.20;;;4.70;86.10;;;;;;4976435;28;20036;-59
2022/03/31 00:13:30;;;;;;;10.00;7.45;;;4.80;85.90;;;;;;4990499;28;20042;-60
2022/03/31 00:15:58;;;;;;;10.25;7.40;;;4.70;86.10;;;;;;5013315;28;20037;-58
2022/03/31 00:18:27;;;;;;;8.57;7.05;;;4.60;86.10;;;;;;4990593;28;20045;-58
2022/03/31 00:20:53;;;;;;;8.43;6.70;;;4.40;86.20;;;;;;4995690;28;20045;-57
2022/03/31 00:23:20;;;;;;;10.20;7.05;;;4.40;86.50;;;;;;5008405;28;20448;-58
2022/03/31 00:25:48;;;;;;;6.53;5.80;;;4.40;86.90;;;;;;5010047;28;20032;-59
2022/03/31 00:28:14;;;;;;;7.55;5.45;;;4.20;86.90;;;;;;5008664;28;20455;-57
2022/03/31 00:30:41;;;;;;;6.30;5.15;;;4.20;87.10;;;;;;5008425;28;20120;-55
2022/03/31 00:33:08;;;;;;;6.50;4.95;;;4.00;87.20;;;;;;5009921;28;20025;-56
2022/03/31 00:35:37;;;;;;;6.40;5.53;;;3.90;87.30;;;;;;5010162;28;20030;-59
2022/03/31 00:38:05;;;;;;;8.13;6.32;;;3.90;87.50;;;;;;5009263;28;20030;-60
2022/03/31 00:40:33;;;;;;;7.20;5.75;;;3.90;87.70;;;;;;5008874;28;20053;-60
2022/03/31 00:43:02;;;;;;;6.00;4.30;;;3.80;87.80;;;;;;5012984;28;20428;-60
2022/03/31 00:45:46;;;;;;;8.45;5.00;;;3.70;87.90;;;;;;5013424;28;20017;-60
2022/03/31 00:48:19;;;;;;;8.05;5.38;;;3.80;88.20;;;;;;4999589;28;20034;-60
2022/03/31 00:50:47;;;;;;;7.00;4.93;;;3.70;88.10;;;;;;4996138;28;20065;-59
2022/03/31 00:53:16;;;;;;;7.03;5.25;;;3.70;88.10;;;;;;5013627;28;20029;-57
2022/03/31 00:55:47;;;;;;;6.47;5.38;;;3.70;88.20;;;;;;5012401;28;20040;-59
2022/03/31 00:58:14;;;;;;;6.68;6.00;;;3.60;88.10;;;;;;5012898;28;20339;-59
2022/03/31 01:00:43;;;;;;;8.75;6.47;;;3.50;88.00;;;;;;5013310;28;20037;-60
2022/03/31 01:03:09;;;;;;;6.05;5.25;;;3.50;88.10;;;;;;5013068;28;20068;-61
2022/03/31 01:05:41;;;;;;;6.20;4.97;;;3.50;88.30;;;;;;5012326;28;20455;-61
2022/03/31 01:08:10;;;;;;;4.88;3.97;;;3.40;88.30;;;;;;5011549;28;20014;-61
2022/03/31 01:10:40;;;;;;;5.90;4.60;;;3.40;88.30;;;;;;5013232;28;20030;-61
2022/03/31 01:13:16;;;;;;;5.43;4.53;;;3.30;88.40;;;;;;5012785;28;20036;-60
2022/03/31 01:15:41;;;;;;;5.93;4.97;;;3.30;88.80;;;;;;5012167;28;20061;-61
2022/03/31 01:18:10;;;;;;;5.63;4.75;;;3.30;88.80;;;;;;5013019;28;20065;-61
2022/03/31 01:20:36;;;;;;;5.47;4.70;;;3.30;88.80;;;;;;5012932;28;20041;-60
2022/03/31 01:23:05;;;;;;;5.60;4.72;;;3.30;88.80;;;;;;5011138;28;20045;-61
2022/03/31 01:25:33;;;;;;;5.90;5.20;;;3.20;88.80;;;;;;5012946;28;20117;-61
2022/03/31 01:27:59;;;;;;;6.50;4.88;;;3.10;89.00;;;;;;5012359;28;20026;-61
2022/03/31 01:30:26;;;;;;;6.35;5.00;;;3.10;89.00;;;;;;5012787;28;20030;-60
2022/03/31 01:32:52;;;;;;;7.22;5.25;;;3.00;88.80;;;;;;4994818;28;20572;-61
2022/03/31 01:35:19;;;;;;;6.40;5.57;;;3.00;88.80;;;;;;5012634;28;20053;-58
2022/03/31 01:37:47;;;;;;;7.50;5.32;;;2.90;89.00;;;;;;5011432;28;20037;-61
2022/03/31 01:40:14;;;;;;;6.38;5.03;;;2.90;89.00;;;;;;5011655;28;20034;-61
2022/03/31 01:42:43;;;;;;;8.25;4.68;;;2.90;89.20;;;;;;5011323;28;20041;-60
2022/03/31 01:45:14;;;;;;;6.88;5.57;;;2.90;89.20;;;;;;5010723;28;20033;-59
2022/03/31 01:47:40;;;;;;;5.85;5.25;;;2.90;89.30;;;;;;5011340;28;20030;-61
2022/03/31 01:50:11;;;;;;;6.00;4.93;;;2.80;89.30;;;;;;4994868;28;20370;-59
2022/03/31 01:52:39;;;;;;;5.72;4.90;;;2.80;89.30;;;;;;5011552;28;20034;-60
2022/03/31 01:55:07;;;;;;;8.50;5.80;;;2.70;89.30;;;;;;5010988;28;20440;-61
2022/03/31 01:57:33;;;;;;;6.45;5.18;;;2.70;89.30;;;;;;5011726;28;20030;-58
2022/03/31 02:00:02;;;;;;;5.55;4.68;;;2.70;89.60;;;;;;5011743;28;20069;-59
2022/03/31 02:02:30;;;;;;;7.03;4.43;;;2.70;89.50;;;;;;5012078;28;20044;-61
2022/03/31 02:04:57;;;;;;;5.82;4.45;;;2.60;89.20;;;;;;4995441;28;20034;-59
2022/03/31 02:07:23;;;;;;;5.38;4.28;;;2.50;89.50;;;;;;5010947;28;20041;-59
2022/03/31 02:09:50;;;;;;;6.80;4.35;;;2.40;89.30;;;;;;5012188;28;20037;-60
2022/03/31 02:12:16;;;;;;;7.20;4.70;;;2.40;89.50;;;;;;5010089;28;20026;-60
2022/03/31 02:14:43;;;;;;;6.72;5.63;;;2.40;89.40;;;;;;5011756;28;20117;-61
2022/03/31 02:17:11;;;;;;;6.15;5.13;;;2.40;89.60;;;;;;5012053;28;20065;-60
2022/03/31 02:19:37;;;;;;;7.82;4.90;;;2.20;89.40;;;;;;5010624;28;20029;-60
2022/03/31 02:22:06;;;;;;;7.03;5.00;;;2.20;89.70;;;;;;5010361;28;20050;-61
2022/03/31 02:24:37;;;;;;;5.88;4.78;;;2.20;89.70;;;;;;4994117;28;20049;-60
2022/03/31 02:27:04;;;;;;;6.22;4.72;;;2.10;89.80;;;;;;5010635;28;20049;-61
2022/03/31 02:29:31;;;;;;;6.72;4.25;;;2.20;89.80;;;;;;5010339;28;20052;-61
2022/03/31 02:31:57;;;;;;;8.65;5.32;;;2.00;89.80;;;;;;5011565;28;20025;-60
2022/03/31 02:34:25;;;;;;;7.13;5.20;;;2.00;89.90;;;;;;5011303;28;20140;-61
2022/03/31 02:36:55;;;;;;;6.35;4.90;;;2.00;90.00;;;;;;5010105;28;20038;-60
2022/03/31 02:39:20;;;;;;;7.00;5.53;;;2.00;90.10;;;;;;5010172;28;20041;-59
2022/03/31 02:41:47;;;;;;;6.10;5.28;;;2.00;90.10;;;;;;5010730;28;20030;-59
2022/03/31 02:44:16;;;;;;;6.03;4.90;;;2.00;90.00;;;;;;5010799;28;20084;-60
2022/03/31 02:46:44;;;;;;;6.43;5.40;;;1.90;90.10;;;;;;5011481;28;20415;-59
2022/03/31 02:49:11;;;;;;;7.30;5.70;;;1.90;90.10;;;;;;5011252;28;20037;-59
2022/03/31 02:51:51;;;;;;;7.60;5.47;;;1.90;90.20;;;;;;5010985;28;20105;-61
2022/03/31 02:57:03;;;;;;;7.90;5.47;;;1.90;90.20;;;;;;5010948;28;20084;-62
2022/03/31 02:59:33;;;;;;;7.80;6.28;;;2.00;90.50;;;;;;5010650;28;20028;-61
2022/03/31 03:01:59;;;;;;;10.20;7.55;;;2.10;90.50;;;;;;5010787;28;20037;-60
2022/03/31 03:04:27;;;;;;;13.50;8.10;;;2.10;90.50;;;;;;5010035;28;20026;-61
2022/03/31 03:06:54;;;;;;;10.20;6.75;;;2.20;90.50;;;;;;5011005;28;20034;-62
2022/03/31 03:09:22;;;;;;;11.95;6.95;;;2.20;90.40;;;;;;4993110;28;20124;-62
2022/03/31 03:11:49;;;;;;;10.27;6.78;;;2.20;90.60;;;;;;5011281;28;20055;-62
2022/03/31 03:14:17;;;;;;;9.75;7.43;;;2.20;90.50;;;;;;5009578;28;20036;-61
2022/03/31 03:16:44;;;;;;;12.85;8.30;;;2.20;90.50;;;;;;5009799;28;20034;-61
2022/03/31 03:19:15;;;;;;;11.65;7.50;;;2.20;90.50;;;;;;5010667;28;20030;-62
2022/03/31 03:21:42;;;;;;;14.88;9.48;;;2.20;90.50;;;;;;5009807;28;20390;-61
2022/03/31 03:24:10;;;;;;;11.98;8.95;;;2.20;90.50;;;;;;5010606;28;20101;-61
2022/03/31 03:26:37;;;;;;;10.35;7.97;;;2.20;90.50;;;;;;5010830;28;20502;-61
2022/03/31 03:29:04;;;;;;;11.93;8.18;;;2.20;90.50;;;;;;5009203;28;20034;-60
2022/03/31 03:31:31;;;;;;;13.30;7.63;;;2.20;90.50;;;;;;5009681;28;20030;-62
2022/03/31 03:33:59;;;;;;;11.00;7.50;;;2.10;90.40;;;;;;5009064;28;20044;-62
2022/03/31 03:36:27;;;;;;;11.05;8.23;;;2.20;90.60;;;;;;5008611;28;20026;-62
2022/03/31 03:38:54;;;;;;;12.77;8.95;;;2.20;90.60;;;;;;5010368;28;20119;-61
2022/03/31 03:41:30;;;;;;;14.57;8.57;;;2.20;90.60;;;;;;5010122;28;20030;-62
2022/03/31 03:43:58;;;;;;;12.05;8.50;;;2.20;90.70;;;;;;5010034;28;20153;-61
2022/03/31 03:46:31;;;;;;;13.68;9.45;;;2.10;90.60;;;;;;5010417;28;20038;-61
2022/03/31 03:49:01;;;;;;;14.27;8.95;;;2.10;90.60;;;;;;5009393;28;20196;-61
2022/03/31 03:51:28;;;;;;;10.68;9.20;;;2.10;90.70;;;;;;5009391;28;20053;-61
2022/03/31 03:53:55;;;;;;;13.90;8.88;;;2.20;90.80;;;;;;5010334;28;20029;-61
2022/03/31 03:56:20;;;;;;;13.30;10.35;;;2.20;90.90;;;;;;5010354;28;20120;-60
2022/03/31 03:58:48;;;;;;;15.00;10.15;;;2.30;90.90;;;;;;4992986;28;20542;-60
2022/03/31 04:01:15;;;;;;;13.27;10.38;;;2.30;90.80;;;;;;5009505;28;20034;-60
2022/03/31 04:03:43;;;;;;;14.70;10.93;;;2.40;90.90;;;;;;5009964;28;20026;-61
2022/03/31 04:06:11;;;;;;;13.00;10.38;;;2.40;90.80;;;;;;5008558;28;20030;-61
2022/03/31 04:08:41;;;;;;;13.45;10.45;;;2.40;90.80;;;;;;5010090;28;20489;-61
2022/03/31 04:11:07;;;;;;;21.17;9.65;;;2.40;90.80;;;;;;5009096;28;20069;-61
2022/03/31 04:13:38;;;;;;;17.50;11.75;;;2.30;90.90;;;;;;5009998;28;20048;-61
2022/03/31 04:16:05;;;;;;;15.05;11.48;;;2.40;90.80;;;;;;5010797;28;20032;-61
2022/03/31 04:18:32;;;;;;;15.25;11.23;;;2.40;90.80;;;;;;5013778;28;20026;-60
2022/03/31 04:21:02;;;;;;;16.98;11.60;;;2.40;91.00;;;;;;5013721;28;20057;-61
2022/03/31 04:23:32;;;;;;;17.67;12.23;;;2.40;91.00;;;;;;5012497;28;20144;-61
2022/03/31 04:25:59;;;;;;;15.40;11.35;;;2.40;90.90;;;;;;5013977;28;20439;-61
2022/03/31 04:28:27;;;;;;;16.23;12.20;;;2.40;91.00;;;;;;5013967;28;20022;-61
2022/03/31 04:30:54;;;;;;;18.23;11.20;;;2.40;91.00;;;;;;5013060;28;20375;-60
2022/03/31 04:33:26;;;;;;;15.27;11.13;;;2.40;91.00;;;;;;5012491;28;20409;-61
2022/03/31 04:35:53;;;;;;;19.15;11.57;;;2.40;90.90;;;;;;5013684;28;20316;-61
2022/03/31 04:38:19;;;;;;;13.55;10.10;;;2.50;90.90;;;;;;5013628;28;20029;-60
2022/03/31 04:40:46;;;;;;;14.88;12.65;;;2.50;91.00;;;;;;4995908;28;20037;-61
2022/03/31 04:43:13;;;;;;;11.93;9.40;;;2.40;90.80;;;;;;5011594;28;20160;-61
2022/03/31 04:45:41;;;;;;;13.65;10.32;;;2.40;90.70;;;;;;4996380;28;20121;-61
2022/03/31 04:48:08;;;;;;;11.77;9.18;;;2.40;90.70;;;;;;5012604;28;20149;-61
2022/03/31 04:50:35;;;;;;;10.95;8.25;;;2.40;90.70;;;;;;5010552;28;20475;-61
2022/03/31 04:53:03;;;;;;;12.60;8.57;;;2.40;90.70;;;;;;5010862;28;20443;-60
2022/03/31 04:55:30;;;;;;;11.30;8.65;;;2.30;90.60;;;;;;5012337;28;20474;-61
2022/03/31 04:57:59;;;;;;;10.35;8.23;;;2.40;90.60;;;;;;5013567;28;20045;-62
2022/03/31 05:00:25;;;;;;;11.30;9.38;;;2.30;90.60;;;;;;5010781;28;20034;-61
2022/03/31 05:02:54;;;;;;;10.82;8.40;;;2.40;90.70;;;;;;5012136;28;20356;-61
2022/03/31 05:05:22;;;;;;;12.50;7.93;;;2.30;90.60;;;;;;5009515;28;20448;-62
2022/03/31 05:07:48;;;;;;;10.63;7.88;;;2.30;90.50;;;;;;5012976;28;20411;-61
2022/03/31 05:10:14;;;;;;;9.40;7.60;;;2.20;90.50;;;;;;5012711;28;20044;-61
2022/03/31 05:12:39;;;;;;;11.57;8.43;;;2.20;90.60;;;;;;5011786;28;20112;-61
2022/03/31 05:15:08;;;;;;;10.38;7.47;;;2.20;90.60;;;;;;5011443;28;20095;-61
2022/03/31 05:17:37;;;;;;;10.65;7.13;;;2.20;90.40;;;;;;5011711;28;20106;-62
2022/03/31 05:20:15;;;;;;;9.45;7.40;;;2.10;90.40;;;;;;5012728;28;20022;-61
2022/03/31 05:22:40;;;;;;;12.40;8.52;;;2.00;90.50;;;;;;4993192;28;20392;-61
2022/03/31 05:25:12;;;;;;;10.82;8.02;;;2.00;90.50;;;;;;5006569;28;20022;-61
2022/03/31 05:27:43;;;;;;;9.30;7.85;;;2.00;90.60;;;;;;5011993;28;20148;-60
2022/03/31 05:30:12;;;;;;;8.93;7.78;;;1.90;90.60;;;;;;5010887;28;20030;-60
2022/03/31 05:32:39;;;;;;;9.40;7.30;;;1.90;90.60;;;;;;5009900;28;20069;-59
2022/03/31 05:35:06;;;;;;;10.07;7.97;;;1.90;90.40;;;;;;5011585;28;20034;-60
2022/03/31 05:37:34;;;;;;;10.30;7.57;;;1.90;90.50;;;;;;5012525;28;20017;-60
2022/03/31 05:40:06;;;;;;;10.75;8.15;;;1.90;90.60;;;;;;5010553;28;20443;-60
2022/03/31 05:42:34;;;;;;;11.57;8.55;;;1.90;90.60;;;;;;4987569;28;20069;-59
2022/03/31 05:45:00;;;;;;;11.52;8.10;;;1.90;90.60;;;;;;4994000;28;20044;-60
2022/03/31 05:47:30;;;;;;;10.35;8.82;;;1.80;90.30;;;;;;4977674;28;20463;-60
2022/03/31 05:49:56;;;;;;;10.68;8.65;;;1.80;90.50;;;;;;5010426;28;20026;-59
2022/03/31 05:52:23;;;;;;;13.18;8.65;;;1.80;90.50;;;;;;5011171;28;20038;-60
2022/03/31 05:54:54;;;;;;;11.35;8.48;;;1.80;90.40;;;;;;5011569;28;20022;-60
2022/03/31 05:57:23;;;;;;;10.65;7.70;;;1.80;90.40;;;;;;5010854;28;20044;-61
2022/03/31 05:59:51;;;;;;;14.05;8.32;;;1.70;90.30;;;;;;5011146;28;20477;-59
2022/03/31 06:02:19;;;;;;;10.90;8.18;;;1.70;90.50;;;;;;5009803;28;20044;-60
2022/03/31 06:04:46;;;;;;;10.43;8.32;;;1.70;90.50;;;;;;5009809;28;20021;-61
2022/03/31 06:07:17;;;;;;;10.82;8.00;;;1.80;90.60;;;;;;5002392;28;20022;-59
2022/03/31 06:09:42;;;;;;;12.27;9.48;;;1.70;90.50;;;;;;5004363;28;20592;-61
2022/03/31 06:12:09;;;;;;;11.52;9.10;;;1.70;90.60;;;;;;5001070;28;20030;-59
2022/03/31 06:14:37;;;;;;;14.82;8.35;;;1.70;90.50;;;;;;5005316;28;20120;-60
2022/03/31 06:17:04;;;;;;;10.18;7.88;;;1.60;90.50;;;;;;5009817;28;20793;-59
2022/03/31 06:19:33;;;;;;;13.88;8.45;;;1.50;90.50;;;;;;5010957;28;20123;-59
2022/03/31 06:21:59;;;;;;;11.07;8.43;;;1.50;90.50;;;;;;5009821;28;20077;-59
2022/03/31 06:24:27;;;;;;;10.05;7.68;;;1.50;90.70;;;;;;5011392;28;20057;-61
2022/03/31 06:26:57;;;;;;;8.82;7.13;;;1.50;90.80;;;;;;5011581;28;20030;-60
2022/03/31 06:29:25;;;;;;;10.07;7.30;;;1.40;90.60;;;;;;5011360;28;20026;-60
2022/03/31 06:31:54;;;;;;;8.98;6.75;;;1.40;90.60;;;;;;5006671;28;20112;-54
2022/03/31 06:34:22;;;;;;;11.77;7.15;;;1.40;90.70;;;;;;4987397;28;20030;-60
2022/03/31 06:36:49;;;;;;;9.30;6.78;;;1.40;90.70;;;;;;5010458;28;20049;-56
2022/03/31 06:39:16;;;;;;;12.90;6.80;;;1.30;90.80;;;;;;5010444;28;20431;-59
2022/03/31 06:41:43;;;;;;;9.75;6.30;;;1.40;90.90;;;;;;5011311;28;20038;-58
2022/03/31 06:44:13;;;;;;;14.02;7.65;;;1.30;90.80;;;;;;5010098;28;20359;-58
2022/03/31 06:46:40;;;;;;;11.35;8.25;;;1.30;90.90;;;;;;5009337;28;20034;-59
2022/03/31 06:49:08;;;;;;;10.35;7.18;;;1.30;90.90;;;;;;5009954;28;20092;-56
2022/03/31 06:51:35;;;;;;;9.35;6.15;;;1.20;90.80;;;;;;5010206;28;20092;-54
2022/03/31 06:54:03;;;;;;;11.55;8.02;;;1.20;90.80;;;;;;5011148;28;20034;-52
2022/03/31 06:56:30;;;;;;;12.23;9.77;;;1.20;90.80;;;;;;5010899;28;20034;-51
2022/03/31 06:59:07;;;;;;;17.33;11.55;;;1.30;91.00;;;;;;5007863;28;20068;-52
2022/03/31 07:01:33;;;;;;;9.15;7.70;;;1.20;90.90;;;;;;4999348;28;20144;-54
2022/03/31 07:04:06;;;;;;;9.93;7.38;;;1.20;91.00;;;;;;5000863;28;20117;-55
2022/03/31 07:06:35;;;;;;;10.52;7.70;;;1.20;90.90;;;;;;5006321;28;20026;-54
2022/03/31 07:09:07;;;;;;;9.02;7.15;;;1.20;91.00;;;;;;5007366;28;20025;-55
2022/03/31 07:11:35;;;;;;;12.07;8.20;;;1.10;90.90;;;;;;5004006;28;21138;-54
2022/03/31 07:14:05;;;;;;;8.57;6.60;;;1.10;90.90;;;;;;5004458;28;20057;-55
2022/03/31 07:16:31;;;;;;;;;;;1.00;90.90;;;;;;5008063;28;20026;-56
2022/03/31 07:18:58;;;;;;;11.93;7.60;;;1.00;90.90;;;;;;5006325;28;20369;-52
2022/03/31 07:21:25;;;;;;;8.85;7.07;;;1.00;91.00;;;;;;5005855;28;20154;-54
2022/03/31 07:23:52;;;;;;;8.55;6.72;;;1.00;90.90;;;;;;4989214;28;20479;-50
2022/03/31 07:26:22;;;;;;;10.30;7.47;;;1.00;91.10;;;;;;5005948;28;20054;-50
2022/03/31 07:28:49;;;;;;;13.20;8.07;;;1.00;91.00;;;;;;5006138;28;20026;-54
2022/03/31 07:31:16;;;;;;;9.82;6.70;;;1.00;91.00;;;;;;5006079;28;20038;-52
2022/03/31 07:33:44;;;;;;;10.27;8.80;;;1.00;91.10;;;;;;5002954;28;20108;-52
2022/03/31 07:36:13;;;;;;;9.18;6.72;;;1.00;91.00;;;;;;5005254;28;20033;-53
2022/03/31 07:38:41;;;;;;;9.65;6.80;;;1.00;91.10;;;;;;5006010;28;20101;-49
2022/03/31 07:41:09;;;;;;;11.00;7.85;;;1.00;90.80;;;;;;5006874;28;20042;-53
2022/03/31 07:43:35;;;;;;;9.63;6.60;;;1.00;91.00;;;;;;5006449;28;20038;-52
2022/03/31 07:46:04;;;;;;;10.57;7.55;;;1.00;90.90;;;;;;5007052;28;20053;-54
2022/03/31 07:48:30;;;;;;;12.68;7.63;;;1.00;90.90;;;;;;5005495;28;20022;-52
2022/03/31 07:50:58;;;;;;;8.70;7.45;;;1.00;90.80;;;;;;5006418;28;20344;-52
2022/03/31 07:53:26;;;;;;;11.63;7.32;;;1.00;90.80;;;;;;5005600;28;20339;-54
2022/03/31 07:55:55;;;;;;;13.88;6.82;;;1.00;90.80;;;;;;5007035;28;20092;-52
2022/03/31 07:58:22;;;;;;;12.40;9.35;;;1.00;90.90;;;;;;5006870;28;20160;-50
2022/03/31 08:00:50;;;;;;;10.60;7.20;;;1.00;91.00;;;;;;5005766;28;20522;-53
2022/03/31 08:03:28;;;;;;;8.85;7.28;;;0.90;90.80;;;;;;5006646;28;20045;-55
2022/03/31 08:05:54;;;;;;;9.25;6.60;;;0.90;90.80;;;;;;5004205;28;20038;-50
2022/03/31 08:08:21;;;;;;;10.82;7.45;;;0.90;90.80;;;;;;5004258;28;20034;-54
2022/03/31 08:10:49;;;;;;;11.18;8.50;;;0.90;90.80;;;;;;5006217;28;20033;-53
2022/03/31 08:13:29;;;;;;;12.45;9.65;;;1.00;90.80;;;;;;5006255;28;20042;-54
2022/03/31 08:15:56;;;;;;;13.63;10.40;;;1.00;90.90;;;;;;5006804;28;20040;-50
2022/03/31 08:18:28;;;;;;;13.77;10.98;;;1.00;90.80;;;;;;5002892;28;20026;-53
2022/03/31 08:20:58;;;;;;;17.95;13.80;;;1.00;90.80;;;;;;5002553;28;20096;-55
2022/03/31 08:23:25;;;;;;;13.23;8.40;;;1.00;90.80;;;;;;5003428;28;20057;-51
2022/03/31 08:25:54;;;;;;;12.82;7.55;;;1.00;90.70;;;;;;5005384;28;20069;-51
2022/03/31 08:28:22;;;;;;;10.32;8.63;;;1.00;90.80;;;;;;4988846;28;20459;-48
2022/03/31 08:30:49;;;;;;;14.95;9.93;;;1.00;90.80;;;;;;5004674;28;20049;-47
2022/03/31 08:33:17;;;;;;;9.68;7.53;;;1.00;90.80;;;;;;5003813;28;20088;-51
2022/03/31 08:35:44;;;;;;;14.18;12.68;;;1.00;90.60;;;;;;4988676;28;20033;-49
2022/03/31 08:38:11;;;;;;;10.25;8.93;;;0.90;90.70;;;;;;5007062;28;20059;-52
2022/03/31 08:40:45;;;;;;;12.00;10.40;;;1.00;90.70;;;;;;4988651;28;20033;-50
2022/03/31 08:43:10;;;;;;;13.50;10.18;;;0.90;90.70;;;;;;4987990;28;20038;-54
2022/03/31 08:45:51;;;;;;;11.75;8.40;;;0.90;90.60;;;;;;4996162;28;20029;-52
2022/03/31 08:48:18;;;;;;;8.60;5.57;;;0.90;90.60;;;;;;5006606;28;20048;-52
2022/03/31 08:50:48;;;;;;;14.20;8.38;;;0.90;90.70;;;;;;5005059;28;20092;-54
2022/03/31 08:53:15;;;;;;;11.52;6.05;;;0.90;90.60;;;;;;5005872;28;20034;-54
2022/03/31 08:55:43;;;;;;;7.78;6.97;;;0.80;90.40;;;;;;5006047;28;20055;-53
2022/03/31 08:58:10;;;;;;;9.90;6.65;;;0.90;90.60;;;;;;5004939;28;20022;-51
2022/03/31 09:00:39;;;;;;;13.07;6.97;;;0.90;90.70;;;;;;5006662;28;20060;-53
2022/03/31 09:03:10;;;;;;;10.30;6.43;;;0.90;90.80;;;;;;5007069;28;20022;-50
2022/03/31 09:05:41;;;;;;;9.02;6.22;;;0.90;90.90;;;;;;5009292;28;20040;-51
2022/03/31 09:08:14;;;;;;;7.72;6.13;;;0.90;90.90;;;;;;5009994;28;20520;-52
2022/03/31 09:10:52;;;;;;;9.15;5.60;;;0.90;90.90;;;;;;5009559;28;20371;-49
2022/03/31 09:13:22;;;;;;;12.35;7.40;;;0.90;90.90;;;;;;5009510;28;20041;-54
2022/03/31 09:16:01;;;;;;;9.95;6.03;;;0.90;90.90;;;;;;5009295;28;20092;-56
2022/03/31 09:18:43;;;;;;;9.25;5.35;;;0.80;90.90;;;;;;5006636;28;20099;-54
2022/03/31 09:21:11;;;;;;;8.52;6.78;;;0.70;90.80;;;;;;5008856;28;20029;-56
2022/03/31 09:23:56;;;;;;;9.93;7.93;;;0.70;90.90;;;;;;5007483;28;20092;-55
2022/03/31 09:26:27;;;;;;;9.70;6.22;;;0.70;91.00;;;;;;5009513;28;20352;-56
2022/03/31 09:28:54;;;;;;;9.93;6.68;;;0.70;91.00;;;;;;5008894;28;20026;-52
2022/03/31 09:31:27;;;;;;;10.00;7.10;;;0.70;91.20;;;;;;4992051;28;20037;-52
2022/03/31 09:33:57;;;;;;;10.90;7.22;;;0.80;91.20;;;;;;5009191;28;20477;-50
2022/03/31 09:36:26;;;;;;;14.38;10.65;;;0.80;91.10;;;;;;5004636;28;20503;-50
2022/03/31 09:39:17;;;;;;;13.10;8.40;;;0.70;91.00;;;;;;5005310;28;20037;-49
2022/03/31 09:41:56;;;;;;;12.73;7.88;;;0.70;91.10;;;;;;5008036;28;20116;-52
2022/03/31 09:44:25;;;;;;;12.88;7.32;;;0.70;91.20;;;;;;4976116;28;20043;-51
2022/03/31 09:46:57;;;;;;;10.35;6.32;;;0.70;91.20;;;;;;5008256;28;20033;-52
2022/03/31 09:49:25;;;;;;;9.02;6.80;;;0.60;91.30;;;;;;5007114;28;20056;-52
2022/03/31 09:51:56;;;;;;;10.57;5.95;;;0.60;91.40;;;;;;5007968;28;20026;-47
2022/03/31 09:54:27;;;;;;;11.70;8.23;;;0.70;91.60;;;;;;5006546;28;20038;-49
2022/03/31 09:57:07;;;;;;;10.75;7.28;;;0.70;91.60;;;;;;4972473;28;20088;-52
2022/03/31 09:59:40;;;;;;;11.90;8.23;;;0.70;91.70;;;;;;5007856;28;20026;-51
2022/03/31 10:02:08;;;;;;;21.25;10.73;;;0.60;91.70;;;;;;5007033;28;20538;-51
2022/03/31 10:04:35;;;;;;;9.90;7.40;;;0.70;91.70;;;;;;5006637;28;20092;-54
2022/03/31 10:07:09;;;;;;;12.52;8.23;;;0.80;91.90;;;;;;5007716;28;20050;-55
2022/03/31 10:09:39;;;;;;;12.48;8.18;;;0.70;91.70;;;;;;5004912;28;20045;-51
2022/03/31 10:12:42;;;;;;;9.98;7.53;;;0.70;91.70;;;;;;5007735;28;20113;-52
2022/03/31 10:15:30;;;;;;;12.75;7.93;;;0.70;91.80;;;;;;4990492;28;20057;-49
2022/03/31 10:17:57;;;;;;;13.25;7.88;;;0.80;91.80;;;;;;5002048;28;20049;-52
2022/03/31 10:20:24;;;;;;;12.80;7.97;;;0.80;91.70;;;;;;5008066;28;20022;-53
2022/03/31 10:25:57;;;;;;;15.23;8.05;;;0.70;91.50;;;;;;5005983;28;20033;-55
2022/03/31 10:28:24;;;;;;;15.57;10.38;;;0.70;91.50;;;;;;5007224;28;20105;-48
2022/03/31 10:31:06;;;;;;;11.50;8.30;;;0.70;91.60;;;;;;5007565;28;20053;-51
2022/03/31 10:33:47;;;;;;;10.18;7.90;;;0.70;91.60;;;;;;5006453;28;20081;-50
2022/03/31 10:36:16;;;;;;;13.45;8.15;;;0.80;91.80;;;;;;5007248;28;20045;-53
2022/03/31 10:39:14;;;;;;;16.63;10.70;;;0.80;91.70;;;;;;5006882;28;20072;-52
2022/03/31 10:41:43;;;;;;;19.00;11.52;;;0.80;91.70;;;;;;5006135;28;20030;-52
2022/03/31 10:44:15;;;;;;;15.07;10.75;;;0.80;91.70;;;;;;5007004;28;20029;-51
2022/03/31 10:46:43;;;;;;;20.00;10.27;;;0.70;91.60;;;;;;5003297;28;20038;-53
2022/03/31 10:49:17;;;;;;;18.42;10.73;;;0.70;91.70;;;;;;5007092;28;20040;-52
2022/03/31 10:51:47;;;;;;;26.42;17.65;;;0.70;91.80;;;;;;5006323;28;20045;-51
2022/03/31 10:54:42;;;;;;;22.77;13.55;;;0.70;91.80;;;;;;5007460;28;20022;-51
2022/03/31 10:57:15;;;;;;;26.17;13.95;;;0.80;91.80;;;;;;5006830;28;20088;-54
2022/03/31 10:59:46;;;;;;;19.70;12.82;;;0.80;91.80;;;;;;5006124;28;20033;-54
2022/03/31 11:02:38;;;;;;;21.10;13.15;;;0.80;91.70;;;;;;5006183;28;20064;-55
2022/03/31 11:05:05;;;;;;;18.08;11.88;;;0.80;91.60;;;;;;5006586;28;20051;-51
2022/03/31 11:07:34;;;;;;;17.92;11.52;;;0.80;91.40;;;;;;5006787;28;20041;-50
2022/03/31 11:10:13;;;;;;;14.40;8.80;;;0.90;91.30;;;;;;5006133;28;20042;-53
2022/03/31 11:12:54;;;;;;;13.48;8.73;;;0.90;91.10;;;;;;5006399;28;20054;-49
2022/03/31 11:15:24;;;;;;;13.05;9.30;;;0.90;91.10;;;;;;5007149;28;20112;-52
2022/03/31 11:18:03;;;;;;;16.67;11.77;;;0.90;91.10;;;;;;5006924;28;20120;-55
2022/03/31 11:20:33;;;;;;;13.15;9.65;;;1.00;91.10;;;;;;5002997;28;20036;-56
2022/03/31 11:23:04;;;;;;;13.10;9.77;;;1.00;91.00;;;;;;5003079;28;20057;-56
2022/03/31 11:25:30;;;;;;;13.20;9.02;;;1.00;90.70;;;;;;5002353;28;20034;-53
2022/03/31 11:28:00;;;;;;;13.60;8.68;;;1.10;90.80;;;;;;5004605;28;20045;-54
2022/03/31 11:30:32;;;;;;;10.52;7.38;;;1.10;90.70;;;;;;5005944;28;20518;-54
2022/03/31 11:33:00;;;;;;;12.98;8.07;;;1.00;90.60;;;;;;5006175;28;20379;-51
2022/03/31 11:35:28;;;;;;;11.10;7.50;;;1.00;90.50;;;;;;5005317;28;20065;-53
2022/03/31 11:38:04;;;;;;;9.88;7.13;;;1.00;90.40;;;;;;4989767;28;20510;-51
2022/03/31 11:40:35;;;;;;;9.50;6.63;;;1.00;90.50;;;;;;5000620;28;20440;-51
2022/03/31 11:43:08;;;;;;;11.20;8.68;;;1.00;90.60;;;;;;4988891;28;20041;-51
2022/03/31 11:45:36;;;;;;;9.98;7.40;;;1.00;90.70;;;;;;4989454;28;20232;-53
2022/03/31 11:48:22;;;;;;;15.00;7.50;;;1.00;90.60;;;;;;5005460;28;20029;-53
2022/03/31 11:51:08;;;;;;;11.40;7.45;;;1.00;90.70;;;;;;5005855;28;20126;-55
2022/03/31 11:53:44;;;;;;;13.93;7.43;;;1.00;90.60;;;;;;4988775;28;20497;-53
2022/03/31 11:56:27;;;;;;;11.25;6.88;;;1.00;90.50;;;;;;5007182;28;20030;-50
2022/03/31 11:58:57;;;;;;;10.35;6.68;;;1.00;90.60;;;;;;5006990;28;20106;-53
2022/03/31 12:01:49;;;;;;;9.88;6.03;;;1.00;90.70;;;;;;5006078;28;20049;-49
2022/03/31 12:04:22;;;;;;;8.63;5.78;;;1.00;90.60;;;;;;5004966;28;20064;-55
2022/03/31 12:06:50;;;;;;;10.02;5.82;;;1.00;90.70;;;;;;5005204;28;20165;-51
2022/03/31 12:09:18;;;;;;;9.40;6.55;;;1.10;90.60;;;;;;5005316;28;20058;-53
2022/03/31 12:11:48;;;;;;;10.55;6.82;;;1.10;90.70;;;;;;5006234;28;20092;-54
2022/03/31 12:14:16;;;;;;;10.07;7.38;;;1.20;90.60;;;;;;5006470;28;20040;-54
2022/03/31 12:16:52;;;;;;;9.23;6.43;;;1.20;90.30;;;;;;5005329;28;20459;-54
2022/03/31 12:19:22;;;;;;;8.30;6.30;;;1.20;90.40;;;;;;5005628;28;20251;-55
2022/03/31 12:21:57;;;;;;;8.75;5.75;;;1.20;90.00;;;;;;5005263;28;20052;-53
2022/03/31 12:24:24;;;;;;;9.38;5.50;;;1.30;90.00;;;;;;5003623;28;20037;-55
2022/03/31 12:27:14;;;;;;;8.02;5.20;;;1.40;89.60;;;;;;4989417;28;20049;-50
2022/03/31 12:29:45;;;;;;;9.23;5.97;;;1.40;89.50;;;;;;5005897;28;20040;-52
2022/03/31 12:32:14;;;;;;;11.25;6.35;;;1.40;89.00;;;;;;5005249;28;20592;-52
2022/03/31 12:35:05;;;;;;;11.10;5.70;;;1.50;88.90;;;;;;5004317;28;20516;-55
2022/03/31 12:37:36;;;;;;;10.27;5.93;;;1.60;88.30;;;;;;5005518;28;20057;-53
2022/03/31 12:40:17;;;;;;;10.07;5.95;;;1.60;88.50;;;;;;5008968;28;20038;-55
2022/03/31 12:43:01;;;;;;;9.65;5.85;;;1.60;88.40;;;;;;5008229;28;20044;-56
2022/03/31 12:45:31;;;;;;;9.80;5.35;;;1.60;88.40;;;;;;5007555;28;20478;-57
2022/03/31 12:48:08;;;;;;;12.48;6.32;;;1.70;88.20;;;;;;5009669;28;20042;-56
2022/03/31 12:50:39;;;;;;;13.70;5.35;;;1.70;88.40;;;;;;5008561;28;20024;-55
2022/03/31 12:53:08;;;;;;;11.15;6.10;;;1.70;88.50;;;;;;5008913;28;20423;-57
2022/03/31 12:55:38;;;;;;;9.75;5.47;;;1.70;88.10;;;;;;5007842;28;20033;-58
2022/03/31 12:58:10;;;;;;;17.05;6.70;;;1.70;88.20;;;;;;5006793;28;20053;-59
2022/03/31 13:00:43;;;;;;;8.70;5.22;;;1.80;88.40;;;;;;5021741;28;20076;-60
2022/03/31 13:03:19;;;;;;;9.07;4.68;;;1.80;87.90;;;;;;5009810;28;20104;-59
2022/03/31 13:05:45;;;;;;;7.93;4.97;;;1.70;87.70;;;;;;5008035;28;20109;-60
2022/03/31 13:08:13;;;;;;;10.15;5.90;;;1.70;87.70;;;;;;4989094;28;20453;-60
2022/03/31 13:10:41;;;;;;;11.68;5.55;;;1.70;87.90;;;;;;5009171;28;20061;-60